Ext Cotto Mabu, Puerto Rico
Current Conditions -  °F | °C
As of 7:53 AM on Thursday 29 Jan 2015 (Local Time) from TJNR Reporting Station
Few Clouds Few Clouds  
Wind Chill: 78°   Ceiling: Unl
Heat Index: 80°   Visibility: 10mi
Dew Point: 70°   Wind: 6mph
Humidity: 76%   Direction: 90°E
Pressure: 30.04"   Gusts: NA
Location:  18.1494°N, 65.8294°W
Report Text: TJNR 291153Z AUTO 09005KT 10SM FEW070 26/21 A3004 RMK AO2 SLP171 60004 70007 T02560211 10256 20222 53019 $
Loading
Personal Weather Stations






























Interactive Weather Map New forecast layout! Learn more

10-Day Weather Forecast

Advertisements
Track Severe Weather on mobile